sensor_id;sensor_type;location;lat;lon;timestamp;temperature;humidity
39079;DHT22;24829;49.208;12.080;2022-09-16T00:00:16;12.60;99.90
39079;DHT22;24829;49.208;12.080;2022-09-16T00:02:42;12.60;99.90
39079;DHT22;24829;49.208;12.080;2022-09-16T00:05:07;12.60;99.90
39079;DHT22;24829;49.208;12.080;2022-09-16T00:07:33;12.60;99.90
39079;DHT22;24829;49.208;12.080;2022-09-16T00:09:59;12.60;99.90
39079;DHT22;24829;49.208;12.080;2022-09-16T00:12:25;12.60;99.90
39079;DHT22;24829;49.208;12.080;2022-09-16T00:14:54;12.60;99.90
39079;DHT22;24829;49.208;12.080;2022-09-16T00:17:21;12.60;99.90
39079;DHT22;24829;49.208;12.080;2022-09-16T00:19:46;12.60;99.90
39079;DHT22;24829;49.208;12.080;2022-09-16T00:22:13;12.60;99.90
39079;DHT22;24829;49.208;12.080;2022-09-16T00:24:38;12.60;99.90
39079;DHT22;24829;49.208;12.080;2022-09-16T00:27:04;12.60;99.90
39079;DHT22;24829;49.208;12.080;2022-09-16T00:29:29;12.60;99.90
39079;DHT22;24829;49.208;12.080;2022-09-16T00:31:55;12.60;99.90
39079;DHT22;24829;49.208;12.080;2022-09-16T00:34:20;12.60;99.90
39079;DHT22;24829;49.208;12.080;2022-09-16T00:36:46;12.60;99.90
39079;DHT22;24829;49.208;12.080;2022-09-16T00:39:11;12.60;99.90
39079;DHT22;24829;49.208;12.080;2022-09-16T00:41:38;12.60;99.90
39079;DHT22;24829;49.208;12.080;2022-09-16T00:47:07;12.70;99.90
39079;DHT22;24829;49.208;12.080;2022-09-16T00:49:33;12.70;99.90
39079;DHT22;24829;49.208;12.080;2022-09-16T00:52:01;12.70;99.90
39079;DHT22;24829;49.208;12.080;2022-09-16T00:54:29;12.70;99.90
39079;DHT22;24829;49.208;12.080;2022-09-16T00:56:57;12.70;99.90
39079;DHT22;24829;49.208;12.080;2022-09-16T00:59:26;12.70;99.90
39079;DHT22;24829;49.208;12.080;2022-09-16T01:01:54;12.80;99.90
39079;DHT22;24829;49.208;12.080;2022-09-16T01:04:30;12.80;99.90
39079;DHT22;24829;49.208;12.080;2022-09-16T01:06:56;12.80;99.90
39079;DHT22;24829;49.208;12.080;2022-09-16T01:09:23;12.80;99.90
39079;DHT22;24829;49.208;12.080;2022-09-16T01:11:50;12.80;99.90
39079;DHT22;24829;49.208;12.080;2022-09-16T01:14:17;12.80;99.90
39079;DHT22;24829;49.208;12.080;2022-09-16T01:17:33;12.70;99.90
39079;DHT22;24829;49.208;12.080;2022-09-16T01:26:00;12.80;99.90
39079;DHT22;24829;49.208;12.080;2022-09-16T01:39:04;12.80;99.90
39079;DHT22;24829;49.208;12.080;2022-09-16T01:44:42;12.90;99.90
39079;DHT22;24829;49.208;12.080;2022-09-16T01:48:10;13.00;99.90
39079;DHT22;24829;49.208;12.080;2022-09-16T01:50:32;13.00;99.90
39079;DHT22;24829;49.208;12.080;2022-09-16T01:53:28;13.00;99.90
39079;DHT22;24829;49.208;12.080;2022-09-16T01:56:21;12.90;99.90
39079;DHT22;24829;49.208;12.080;2022-09-16T01:58:59;13.00;99.90
39079;DHT22;24829;49.208;12.080;2022-09-16T02:01:38;13.00;99.90
39079;DHT22;24829;49.208;12.080;2022-09-16T02:04:11;13.00;99.90
39079;DHT22;24829;49.208;12.080;2022-09-16T02:06:39;13.00;99.90
39079;DHT22;24829;49.208;12.080;2022-09-16T02:09:17;13.00;99.90
39079;DHT22;24829;49.208;12.080;2022-09-16T02:11:46;13.00;99.90
39079;DHT22;24829;49.208;12.080;2022-09-16T02:14:21;13.00;99.90
39079;DHT22;24829;49.208;12.080;2022-09-16T02:16:53;13.00;99.90
39079;DHT22;24829;49.208;12.080;2022-09-16T02:19:25;13.00;99.90
39079;DHT22;24829;49.208;12.080;2022-09-16T02:21:53;13.00;99.90
39079;DHT22;24829;49.208;12.080;2022-09-16T02:24:22;13.00;99.90
39079;DHT22;24829;49.208;12.080;2022-09-16T02:26:56;13.00;99.90
39079;DHT22;24829;49.208;12.080;2022-09-16T02:29:26;13.00;99.90
39079;DHT22;24829;49.208;12.080;2022-09-16T02:31:55;13.00;99.90
39079;DHT22;24829;49.208;12.080;2022-09-16T02:34:31;13.00;99.90
39079;DHT22;24829;49.208;12.080;2022-09-16T02:37:07;13.00;99.90
39079;DHT22;24829;49.208;12.080;2022-09-16T02:39:36;13.00;99.90
39079;DHT22;24829;49.208;12.080;2022-09-16T02:42:03;13.00;99.90
39079;DHT22;24829;49.208;12.080;2022-09-16T02:44:29;12.90;99.90
39079;DHT22;24829;49.208;12.080;2022-09-16T02:47:11;12.90;99.90
39079;DHT22;24829;49.208;12.080;2022-09-16T02:49:54;12.90;99.90
39079;DHT22;24829;49.208;12.080;2022-09-16T02:52:41;12.90;99.90
39079;DHT22;24829;49.208;12.080;2022-09-16T02:55:21;12.90;99.90
39079;DHT22;24829;49.208;12.080;2022-09-16T02:57:49;12.90;99.90
39079;DHT22;24829;49.208;12.080;2022-09-16T03:00:15;12.80;99.90
39079;DHT22;24829;49.208;12.080;2022-09-16T03:02:41;12.80;99.90
39079;DHT22;24829;49.208;12.080;2022-09-16T03:05:07;12.80;99.90
39079;DHT22;24829;49.208;12.080;2022-09-16T03:07:34;12.80;99.90
39079;DHT22;24829;49.208;12.080;2022-09-16T03:10:00;12.80;99.90
39079;DHT22;24829;49.208;12.080;2022-09-16T03:18:25;12.80;99.90
39079;DHT22;24829;49.208;12.080;2022-09-16T03:23:37;12.90;99.90
39079;DHT22;24829;49.208;12.080;2022-09-16T03:29:16;12.90;99.90
39079;DHT22;24829;49.208;12.080;2022-09-16T03:34:14;12.90;99.90
39079;DHT22;24829;49.208;12.080;2022-09-16T03:36:46;12.90;99.90
39079;DHT22;24829;49.208;12.080;2022-09-16T03:39:13;12.90;99.90
39079;DHT22;24829;49.208;12.080;2022-09-16T03:41:40;12.90;99.90
39079;DHT22;24829;49.208;12.080;2022-09-16T03:44:05;12.90;99.90
39079;DHT22;24829;49.208;12.080;2022-09-16T03:46:31;12.90;99.90
39079;DHT22;24829;49.208;12.080;2022-09-16T03:48:57;12.90;99.90
39079;DHT22;24829;49.208;12.080;2022-09-16T03:51:24;12.90;99.90
39079;DHT22;24829;49.208;12.080;2022-09-16T03:53:51;12.90;99.90
39079;DHT22;24829;49.208;12.080;2022-09-16T03:56:16;12.90;99.90
39079;DHT22;24829;49.208;12.080;2022-09-16T03:58:42;12.90;99.90
39079;DHT22;24829;49.208;12.080;2022-09-16T04:01:08;12.90;99.90
39079;DHT22;24829;49.208;12.080;2022-09-16T04:03:33;12.90;99.90
39079;DHT22;24829;49.208;12.080;2022-09-16T04:06:01;12.90;99.90
39079;DHT22;24829;49.208;12.080;2022-09-16T04:08:27;12.90;99.90
39079;DHT22;24829;49.208;12.080;2022-09-16T04:10:57;12.90;99.90
39079;DHT22;24829;49.208;12.080;2022-09-16T04:13:24;12.90;99.90
39079;DHT22;24829;49.208;12.080;2022-09-16T04:15:50;12.90;99.90
39079;DHT22;24829;49.208;12.080;2022-09-16T04:18:16;12.90;99.90
39079;DHT22;24829;49.208;12.080;2022-09-16T04:20:41;12.90;99.90
39079;DHT22;24829;49.208;12.080;2022-09-16T04:23:07;12.90;99.90
39079;DHT22;24829;49.208;12.080;2022-09-16T04:25:33;12.90;99.90
39079;DHT22;24829;49.208;12.080;2022-09-16T04:27:59;12.90;99.90
39079;DHT22;24829;49.208;12.080;2022-09-16T04:30:25;12.90;99.90
39079;DHT22;24829;49.208;12.080;2022-09-16T04:32:54;12.80;99.90
39079;DHT22;24829;49.208;12.080;2022-09-16T04:35:22;12.90;99.90
39079;DHT22;24829;49.208;12.080;2022-09-16T04:37:48;12.90;99.90
39079;DHT22;24829;49.208;12.080;2022-09-16T04:40:14;12.90;99.90
39079;DHT22;24829;49.208;12.080;2022-09-16T04:42:39;12.90;99.90
39079;DHT22;24829;49.208;12.080;2022-09-16T04:45:05;12.90;99.90
39079;DHT22;24829;49.208;12.080;2022-09-16T04:47:31;12.80;99.90
39079;DHT22;24829;49.208;12.080;2022-09-16T04:49:56;12.80;99.90
39079;DHT22;24829;49.208;12.080;2022-09-16T04:52:22;12.80;99.90
39079;DHT22;24829;49.208;12.080;2022-09-16T04:54:48;12.70;99.90
39079;DHT22;24829;49.208;12.080;2022-09-16T04:57:13;12.70;99.90
39079;DHT22;24829;49.208;12.080;2022-09-16T04:59:39;12.80;99.90
39079;DHT22;24829;49.208;12.080;2022-09-16T05:02:04;12.80;99.90
39079;DHT22;24829;49.208;12.080;2022-09-16T05:04:30;12.80;99.90
39079;DHT22;24829;49.208;12.080;2022-09-16T05:06:55;12.80;99.90
39079;DHT22;24829;49.208;12.080;2022-09-16T05:09:21;12.70;99.90
39079;DHT22;24829;49.208;12.080;2022-09-16T05:11:47;12.70;99.90
39079;DHT22;24829;49.208;12.080;2022-09-16T05:14:14;12.70;99.90
39079;DHT22;24829;49.208;12.080;2022-09-16T05:16:41;12.70;99.90
39079;DHT22;24829;49.208;12.080;2022-09-16T05:19:07;12.70;99.90
39079;DHT22;24829;49.208;12.080;2022-09-16T05:21:35;12.70;99.90
39079;DHT22;24829;49.208;12.080;2022-09-16T05:24:03;12.70;99.90
39079;DHT22;24829;49.208;12.080;2022-09-16T05:26:30;12.70;99.90
39079;DHT22;24829;49.208;12.080;2022-09-16T05:29:00;12.70;99.90
39079;DHT22;24829;49.208;12.080;2022-09-16T05:31:30;12.70;99.90
39079;DHT22;24829;49.208;12.080;2022-09-16T05:36:32;12.70;99.90
39079;DHT22;24829;49.208;12.080;2022-09-16T05:38:58;12.70;99.90
39079;DHT22;24829;49.208;12.080;2022-09-16T05:41:24;12.60;99.90
39079;DHT22;24829;49.208;12.080;2022-09-16T05:43:50;12.60;99.90
39079;DHT22;24829;49.208;12.080;2022-09-16T05:46:19;12.60;99.90
39079;DHT22;24829;49.208;12.080;2022-09-16T05:48:45;12.50;99.90
39079;DHT22;24829;49.208;12.080;2022-09-16T05:51:14;12.60;99.90
39079;DHT22;24829;49.208;12.080;2022-09-16T05:53:40;12.60;99.90
39079;DHT22;24829;49.208;12.080;2022-09-16T05:56:10;12.60;99.90
39079;DHT22;24829;49.208;12.080;2022-09-16T05:58:37;12.60;99.90
39079;DHT22;24829;49.208;12.080;2022-09-16T06:01:15;12.60;99.90
39079;DHT22;24829;49.208;12.080;2022-09-16T06:03:42;12.60;99.90
39079;DHT22;24829;49.208;12.080;2022-09-16T06:06:31;12.70;99.90
39079;DHT22;24829;49.208;12.080;2022-09-16T06:09:08;12.60;99.90
39079;DHT22;24829;49.208;12.080;2022-09-16T06:11:42;12.70;99.90
39079;DHT22;24829;49.208;12.080;2022-09-16T06:14:09;12.70;99.90
39079;DHT22;24829;49.208;12.080;2022-09-16T06:16:35;12.70;99.90
39079;DHT22;24829;49.208;12.080;2022-09-16T06:19:03;12.80;99.90
39079;DHT22;24829;49.208;12.080;2022-09-16T06:21:29;12.80;99.90
39079;DHT22;24829;49.208;12.080;2022-09-16T06:23:56;12.90;99.90
39079;DHT22;24829;49.208;12.080;2022-09-16T06:26:23;12.90;99.90
39079;DHT22;24829;49.208;12.080;2022-09-16T06:28:50;13.00;99.90
39079;DHT22;24829;49.208;12.080;2022-09-16T06:31:20;13.00;99.90
39079;DHT22;24829;49.208;12.080;2022-09-16T06:33:47;13.00;99.90
39079;DHT22;24829;49.208;12.080;2022-09-16T06:36:17;13.00;99.90
39079;DHT22;24829;49.208;12.080;2022-09-16T06:38:43;13.00;99.90
39079;DHT22;24829;49.208;12.080;2022-09-16T06:41:10;13.00;99.90
39079;DHT22;24829;49.208;12.080;2022-09-16T06:43:37;13.00;99.90
39079;DHT22;24829;49.208;12.080;2022-09-16T06:46:08;13.00;99.90
39079;DHT22;24829;49.208;12.080;2022-09-16T06:48:38;13.00;99.90
39079;DHT22;24829;49.208;12.080;2022-09-16T06:51:06;13.00;99.90
39079;DHT22;24829;49.208;12.080;2022-09-16T06:53:34;13.00;99.90
39079;DHT22;24829;49.208;12.080;2022-09-16T06:56:04;13.10;99.90
39079;DHT22;24829;49.208;12.080;2022-09-16T06:58:34;13.20;99.90
39079;DHT22;24829;49.208;12.080;2022-09-16T07:01:04;13.20;99.90
39079;DHT22;24829;49.208;12.080;2022-09-16T07:03:30;13.30;99.90
39079;DHT22;24829;49.208;12.080;2022-09-16T07:05:57;13.30;99.90
39079;DHT22;24829;49.208;12.080;2022-09-16T07:08:24;13.30;99.90
39079;DHT22;24829;49.208;12.080;2022-09-16T07:11:10;13.30;99.90
39079;DHT22;24829;49.208;12.080;2022-09-16T07:13:36;13.30;99.90
39079;DHT22;24829;49.208;12.080;2022-09-16T07:16:05;13.30;99.90
39079;DHT22;24829;49.208;12.080;2022-09-16T07:18:31;13.40;99.90
39079;DHT22;24829;49.208;12.080;2022-09-16T07:21:04;13.40;99.90
39079;DHT22;24829;49.208;12.080;2022-09-16T07:23:32;13.40;99.90
39079;DHT22;24829;49.208;12.080;2022-09-16T07:26:00;13.40;99.90
39079;DHT22;24829;49.208;12.080;2022-09-16T07:28:25;13.40;99.90
39079;DHT22;24829;49.208;12.080;2022-09-16T07:30:51;13.40;99.90
39079;DHT22;24829;49.208;12.080;2022-09-16T07:33:17;13.40;99.90
39079;DHT22;24829;49.208;12.080;2022-09-16T07:35:42;13.40;99.90
39079;DHT22;24829;49.208;12.080;2022-09-16T07:38:08;13.40;99.90
39079;DHT22;24829;49.208;12.080;2022-09-16T07:40:33;13.50;99.90
39079;DHT22;24829;49.208;12.080;2022-09-16T07:42:59;13.60;99.90
39079;DHT22;24829;49.208;12.080;2022-09-16T07:45:25;13.60;99.90
39079;DHT22;24829;49.208;12.080;2022-09-16T07:47:50;13.60;99.90
39079;DHT22;24829;49.208;12.080;2022-09-16T07:50:16;13.60;99.90
39079;DHT22;24829;49.208;12.080;2022-09-16T07:52:41;13.60;99.90
39079;DHT22;24829;49.208;12.080;2022-09-16T07:55:07;13.60;99.90
39079;DHT22;24829;49.208;12.080;2022-09-16T07:57:33;13.50;99.90
39079;DHT22;24829;49.208;12.080;2022-09-16T07:59:58;13.50;99.90
39079;DHT22;24829;49.208;12.080;2022-09-16T08:02:24;13.50;99.90
39079;DHT22;24829;49.208;12.080;2022-09-16T08:04:50;13.40;99.90
39079;DHT22;24829;49.208;12.080;2022-09-16T08:07:16;13.40;99.90
39079;DHT22;24829;49.208;12.080;2022-09-16T08:09:42;13.50;99.90
39079;DHT22;24829;49.208;12.080;2022-09-16T08:12:08;13.50;99.90
39079;DHT22;24829;49.208;12.080;2022-09-16T08:14:35;13.50;99.90
39079;DHT22;24829;49.208;12.080;2022-09-16T08:17:01;13.60;99.90
39079;DHT22;24829;49.208;12.080;2022-09-16T08:19:27;13.60;99.90
39079;DHT22;24829;49.208;12.080;2022-09-16T08:21:53;13.60;99.90
39079;DHT22;24829;49.208;12.080;2022-09-16T08:24:18;13.70;99.90
39079;DHT22;24829;49.208;12.080;2022-09-16T08:26:44;13.80;99.90
39079;DHT22;24829;49.208;12.080;2022-09-16T08:29:09;13.80;99.90
39079;DHT22;24829;49.208;12.080;2022-09-16T08:31:36;13.80;99.90
39079;DHT22;24829;49.208;12.080;2022-09-16T08:34:01;13.70;99.90
39079;DHT22;24829;49.208;12.080;2022-09-16T08:36:27;13.70;99.90
39079;DHT22;24829;49.208;12.080;2022-09-16T08:38:56;13.60;99.90
39079;DHT22;24829;49.208;12.080;2022-09-16T08:44:09;13.60;99.90
39079;DHT22;24829;49.208;12.080;2022-09-16T08:49:37;13.70;99.90
39079;DHT22;24829;49.208;12.080;2022-09-16T08:52:31;13.70;99.90
39079;DHT22;24829;49.208;12.080;2022-09-16T08:55:04;13.70;99.90
39079;DHT22;24829;49.208;12.080;2022-09-16T08:57:39;13.80;99.90
39079;DHT22;24829;49.208;12.080;2022-09-16T09:00:16;13.90;99.90
39079;DHT22;24829;49.208;12.080;2022-09-16T09:08:08;14.00;99.90
39079;DHT22;24829;49.208;12.080;2022-09-16T09:10:41;14.00;99.90
39079;DHT22;24829;49.208;12.080;2022-09-16T09:22:07;14.20;99.90
39079;DHT22;24829;49.208;12.080;2022-09-16T09:25:00;14.20;99.90
39079;DHT22;24829;49.208;12.080;2022-09-16T09:27:43;14.20;99.90
39079;DHT22;24829;49.208;12.080;2022-09-16T09:30:18;14.10;99.90
39079;DHT22;24829;49.208;12.080;2022-09-16T09:33:04;14.10;99.90
39079;DHT22;24829;49.208;12.080;2022-09-16T09:36:01;14.10;99.90
39079;DHT22;24829;49.208;12.080;2022-09-16T09:41:21;14.00;99.90
39079;DHT22;24829;49.208;12.080;2022-09-16T09:46:57;14.00;99.90
39079;DHT22;24829;49.208;12.080;2022-09-16T09:49:34;14.00;99.90
39079;DHT22;24829;49.208;12.080;2022-09-16T09:52:41;13.90;99.90
39079;DHT22;24829;49.208;12.080;2022-09-16T09:55:18;13.90;99.90
39079;DHT22;24829;49.208;12.080;2022-09-16T10:00:47;13.90;99.90
39079;DHT22;24829;49.208;12.080;2022-09-16T10:03:15;13.90;99.90
39079;DHT22;24829;49.208;12.080;2022-09-16T10:05:42;14.00;99.90
39079;DHT22;24829;49.208;12.080;2022-09-16T10:08:16;14.00;99.90
39079;DHT22;24829;49.208;12.080;2022-09-16T10:10:54;14.00;99.90
39079;DHT22;24829;49.208;12.080;2022-09-16T10:13:21;14.00;99.90
39079;DHT22;24829;49.208;12.080;2022-09-16T10:15:48;14.10;99.90
39079;DHT22;24829;49.208;12.080;2022-09-16T10:18:28;14.20;99.90
39079;DHT22;24829;49.208;12.080;2022-09-16T10:21:08;14.30;99.90
39079;DHT22;24829;49.208;12.080;2022-09-16T10:23:35;14.30;99.90
39079;DHT22;24829;49.208;12.080;2022-09-16T10:29:10;14.30;99.90
39079;DHT22;24829;49.208;12.080;2022-09-16T10:31:38;14.30;99.90
39079;DHT22;24829;49.208;12.080;2022-09-16T10:34:24;14.30;99.90
39079;DHT22;24829;49.208;12.080;2022-09-16T10:39:35;14.20;99.90
39079;DHT22;24829;49.208;12.080;2022-09-16T10:42:02;14.10;99.90
39079;DHT22;24829;49.208;12.080;2022-09-16T10:44:31;14.10;99.90
39079;DHT22;24829;49.208;12.080;2022-09-16T10:47:00;14.10;99.90
39079;DHT22;24829;49.208;12.080;2022-09-16T10:49:50;14.10;99.90
39079;DHT22;24829;49.208;12.080;2022-09-16T10:52:26;14.10;99.90
39079;DHT22;24829;49.208;12.080;2022-09-16T10:54:53;14.20;99.90
39079;DHT22;24829;49.208;12.080;2022-09-16T10:57:30;14.20;99.90
39079;DHT22;24829;49.208;12.080;2022-09-16T10:59:59;14.20;99.90
39079;DHT22;24829;49.208;12.080;2022-09-16T11:02:45;14.10;99.90
39079;DHT22;24829;49.208;12.080;2022-09-16T11:05:30;14.00;99.90
39079;DHT22;24829;49.208;12.080;2022-09-16T11:13:19;13.60;99.90
39079;DHT22;24829;49.208;12.080;2022-09-16T11:19:30;13.60;99.90
39079;DHT22;24829;49.208;12.080;2022-09-16T11:22:11;13.60;99.90
39079;DHT22;24829;49.208;12.080;2022-09-16T11:30:14;14.00;99.90
39079;DHT22;24829;49.208;12.080;2022-09-16T11:41:31;14.40;99.90
39079;DHT22;24829;49.208;12.080;2022-09-16T11:46:50;14.50;99.90
39079;DHT22;24829;49.208;12.080;2022-09-16T11:49:58;14.60;99.90
39079;DHT22;24829;49.208;12.080;2022-09-16T11:52:45;14.50;99.90
39079;DHT22;24829;49.208;12.080;2022-09-16T12:01:12;14.50;99.90
39079;DHT22;24829;49.208;12.080;2022-09-16T12:06:21;14.40;99.90
39079;DHT22;24829;49.208;12.080;2022-09-16T12:08:56;14.40;99.90
39079;DHT22;24829;49.208;12.080;2022-09-16T12:14:02;14.40;99.90
39079;DHT22;24829;49.208;12.080;2022-09-16T12:22:13;14.50;99.90
39079;DHT22;24829;49.208;12.080;2022-09-16T12:24:54;14.50;99.90
39079;DHT22;24829;49.208;12.080;2022-09-16T12:30:04;14.60;99.90
39079;DHT22;24829;49.208;12.080;2022-09-16T12:32:44;14.60;99.90
39079;DHT22;24829;49.208;12.080;2022-09-16T12:35:19;14.60;99.90
39079;DHT22;24829;49.208;12.080;2022-09-16T12:37:47;14.70;99.90
39079;DHT22;24829;49.208;12.080;2022-09-16T12:40:17;14.70;99.90
39079;DHT22;24829;49.208;12.080;2022-09-16T12:43:06;14.70;99.90
39079;DHT22;24829;49.208;12.080;2022-09-16T12:51:17;14.90;99.90
39079;DHT22;24829;49.208;12.080;2022-09-16T12:56:52;15.00;99.90
39079;DHT22;24829;49.208;12.080;2022-09-16T12:59:37;15.00;99.90
39079;DHT22;24829;49.208;12.080;2022-09-16T13:02:18;15.00;99.90
39079;DHT22;24829;49.208;12.080;2022-09-16T13:04:51;15.00;99.90
39079;DHT22;24829;49.208;12.080;2022-09-16T13:07:25;15.10;99.90
39079;DHT22;24829;49.208;12.080;2022-09-16T13:10:15;15.10;99.90
39079;DHT22;24829;49.208;12.080;2022-09-16T13:12:41;15.10;99.90
39079;DHT22;24829;49.208;12.080;2022-09-16T13:15:19;15.20;99.90
39079;DHT22;24829;49.208;12.080;2022-09-16T13:17:46;15.30;99.90
39079;DHT22;24829;49.208;12.080;2022-09-16T13:20:21;15.40;99.90
39079;DHT22;24829;49.208;12.080;2022-09-16T13:23:16;15.30;99.90
39079;DHT22;24829;49.208;12.080;2022-09-16T13:25:50;15.30;99.90
39079;DHT22;24829;49.208;12.080;2022-09-16T13:33:48;15.00;99.90
39079;DHT22;24829;49.208;12.080;2022-09-16T13:36:16;14.90;99.90
39079;DHT22;24829;49.208;12.080;2022-09-16T13:38:47;14.70;99.90
39079;DHT22;24829;49.208;12.080;2022-09-16T13:41:37;14.50;99.90
39079;DHT22;24829;49.208;12.080;2022-09-16T13:52:20;14.00;99.90
39079;DHT22;24829;49.208;12.080;2022-09-16T13:54:51;13.90;99.90
39079;DHT22;24829;49.208;12.080;2022-09-16T13:57:28;14.00;99.90
39079;DHT22;24829;49.208;12.080;2022-09-16T14:13:21;14.30;99.90
39079;DHT22;24829;49.208;12.080;2022-09-16T14:15:52;14.20;99.90
39079;DHT22;24829;49.208;12.080;2022-09-16T14:18:21;14.30;99.90
39079;DHT22;24829;49.208;12.080;2022-09-16T14:21:04;14.20;99.90
39079;DHT22;24829;49.208;12.080;2022-09-16T14:23:31;14.20;99.90
39079;DHT22;24829;49.208;12.080;2022-09-16T14:26:09;14.20;99.90
39079;DHT22;24829;49.208;12.080;2022-09-16T14:28:35;14.20;99.90
39079;DHT22;24829;49.208;12.080;2022-09-16T14:31:05;14.10;99.90
39079;DHT22;24829;49.208;12.080;2022-09-16T14:34:14;14.20;99.90
39079;DHT22;24829;49.208;12.080;2022-09-16T14:36:30;14.20;99.90
39079;DHT22;24829;49.208;12.080;2022-09-16T14:39:01;14.20;99.90
39079;DHT22;24829;49.208;12.080;2022-09-16T14:41:42;14.30;99.90
39079;DHT22;24829;49.208;12.080;2022-09-16T14:46:47;14.50;99.90
39079;DHT22;24829;49.208;12.080;2022-09-16T14:49:14;14.60;99.90
39079;DHT22;24829;49.208;12.080;2022-09-16T14:51:49;14.70;99.90
39079;DHT22;24829;49.208;12.080;2022-09-16T14:54:18;14.70;99.90
39079;DHT22;24829;49.208;12.080;2022-09-16T14:57:05;14.70;99.90
39079;DHT22;24829;49.208;12.080;2022-09-16T14:59:38;14.70;99.90
39079;DHT22;24829;49.208;12.080;2022-09-16T15:04:39;14.70;99.90
39079;DHT22;24829;49.208;12.080;2022-09-16T15:07:11;14.60;99.90
39079;DHT22;24829;49.208;12.080;2022-09-16T15:09:45;14.60;99.90
39079;DHT22;24829;49.208;12.080;2022-09-16T15:12:20;14.60;99.90
39079;DHT22;24829;49.208;12.080;2022-09-16T15:14:47;14.50;99.90
39079;DHT22;24829;49.208;12.080;2022-09-16T15:17:17;14.60;99.90
39079;DHT22;24829;49.208;12.080;2022-09-16T15:19:49;14.60;99.90
39079;DHT22;24829;49.208;12.080;2022-09-16T15:22:15;14.60;99.90
39079;DHT22;24829;49.208;12.080;2022-09-16T15:24:50;14.60;99.90
39079;DHT22;24829;49.208;12.080;2022-09-16T15:27:28;14.70;99.90
39079;DHT22;24829;49.208;12.080;2022-09-16T15:29:58;14.60;99.90
39079;DHT22;24829;49.208;12.080;2022-09-16T15:32:27;14.60;99.90
39079;DHT22;24829;49.208;12.080;2022-09-16T15:35:20;14.10;99.90
39079;DHT22;24829;49.208;12.080;2022-09-16T15:37:45;13.40;99.90
39079;DHT22;24829;49.208;12.080;2022-09-16T15:43:16;12.70;99.90
39079;DHT22;24829;49.208;12.080;2022-09-16T15:45:55;12.50;99.90
39079;DHT22;24829;49.208;12.080;2022-09-16T15:48:22;12.40;99.90
39079;DHT22;24829;49.208;12.080;2022-09-16T15:50:56;12.30;99.90
39079;DHT22;24829;49.208;12.080;2022-09-16T15:56:06;12.00;99.90
39079;DHT22;24829;49.208;12.080;2022-09-16T15:59:01;11.80;99.90
39079;DHT22;24829;49.208;12.080;2022-09-16T16:01:46;11.70;99.90
39079;DHT22;24829;49.208;12.080;2022-09-16T16:04:22;11.70;99.90
39079;DHT22;24829;49.208;12.080;2022-09-16T16:06:54;11.80;99.90
39079;DHT22;24829;49.208;12.080;2022-09-16T16:11:59;11.90;99.90
39079;DHT22;24829;49.208;12.080;2022-09-16T16:14:29;11.90;99.90
39079;DHT22;24829;49.208;12.080;2022-09-16T16:16:59;11.80;99.90
39079;DHT22;24829;49.208;12.080;2022-09-16T16:19:24;11.80;99.90
39079;DHT22;24829;49.208;12.080;2022-09-16T16:21:50;11.70;99.90
39079;DHT22;24829;49.208;12.080;2022-09-16T16:24:18;11.70;99.90
39079;DHT22;24829;49.208;12.080;2022-09-16T16:26:44;11.80;99.90
39079;DHT22;24829;49.208;12.080;2022-09-16T16:29:09;11.90;99.90
39079;DHT22;24829;49.208;12.080;2022-09-16T16:31:35;12.00;99.90
39079;DHT22;24829;49.208;12.080;2022-09-16T16:34:03;12.10;99.90
39079;DHT22;24829;49.208;12.080;2022-09-16T16:36:29;12.00;99.90
39079;DHT22;24829;49.208;12.080;2022-09-16T16:38:54;12.00;99.90
39079;DHT22;24829;49.208;12.080;2022-09-16T16:41:21;11.90;99.90
39079;DHT22;24829;49.208;12.080;2022-09-16T16:43:47;11.90;99.90
39079;DHT22;24829;49.208;12.080;2022-09-16T16:46:13;12.00;99.90
39079;DHT22;24829;49.208;12.080;2022-09-16T16:48:39;12.00;99.90
39079;DHT22;24829;49.208;12.080;2022-09-16T16:51:07;12.00;99.90
39079;DHT22;24829;49.208;12.080;2022-09-16T16:53:33;12.00;99.90
39079;DHT22;24829;49.208;12.080;2022-09-16T16:56:07;11.90;99.90
39079;DHT22;24829;49.208;12.080;2022-09-16T16:58:34;11.90;99.90
39079;DHT22;24829;49.208;12.080;2022-09-16T17:01:14;11.80;99.90
39079;DHT22;24829;49.208;12.080;2022-09-16T17:03:41;11.70;99.90
39079;DHT22;24829;49.208;12.080;2022-09-16T17:06:07;11.60;99.90
39079;DHT22;24829;49.208;12.080;2022-09-16T17:08:34;11.50;99.90
39079;DHT22;24829;49.208;12.080;2022-09-16T17:11:20;11.50;99.90
39079;DHT22;24829;49.208;12.080;2022-09-16T17:13:48;11.40;99.90
39079;DHT22;24829;49.208;12.080;2022-09-16T17:16:17;11.30;99.90
39079;DHT22;24829;49.208;12.080;2022-09-16T17:18:44;11.30;99.90
39079;DHT22;24829;49.208;12.080;2022-09-16T17:21:12;11.30;99.90
39079;DHT22;24829;49.208;12.080;2022-09-16T17:23:38;11.30;99.90
39079;DHT22;24829;49.208;12.080;2022-09-16T17:26:05;11.40;99.90
39079;DHT22;24829;49.208;12.080;2022-09-16T17:28:33;11.40;99.90
39079;DHT22;24829;49.208;12.080;2022-09-16T17:30:59;11.50;99.90
39079;DHT22;24829;49.208;12.080;2022-09-16T17:33:25;11.50;99.90
39079;DHT22;24829;49.208;12.080;2022-09-16T17:36:04;11.50;99.90
39079;DHT22;24829;49.208;12.080;2022-09-16T17:38:31;11.50;99.90
39079;DHT22;24829;49.208;12.080;2022-09-16T17:41:10;11.60;99.90
39079;DHT22;24829;49.208;12.080;2022-09-16T17:43:37;11.60;99.90
39079;DHT22;24829;49.208;12.080;2022-09-16T17:46:05;11.50;99.90
39079;DHT22;24829;49.208;12.080;2022-09-16T17:48:31;11.50;99.90
39079;DHT22;24829;49.208;12.080;2022-09-16T17:50:58;11.40;99.90
39079;DHT22;24829;49.208;12.080;2022-09-16T17:53:24;11.40;99.90
39079;DHT22;24829;49.208;12.080;2022-09-16T17:55:50;11.30;99.90
39079;DHT22;24829;49.208;12.080;2022-09-16T17:58:16;11.40;99.90
39079;DHT22;24829;49.208;12.080;2022-09-16T18:00:42;11.40;99.90
39079;DHT22;24829;49.208;12.080;2022-09-16T18:03:10;11.40;99.90
39079;DHT22;24829;49.208;12.080;2022-09-16T18:05:37;11.50;99.90
39079;DHT22;24829;49.208;12.080;2022-09-16T18:08:03;11.50;99.90
39079;DHT22;24829;49.208;12.080;2022-09-16T18:10:29;11.50;99.90
39079;DHT22;24829;49.208;12.080;2022-09-16T18:12:55;11.60;99.90
39079;DHT22;24829;49.208;12.080;2022-09-16T18:15:23;11.70;99.90
39079;DHT22;24829;49.208;12.080;2022-09-16T18:17:58;11.70;99.90
39079;DHT22;24829;49.208;12.080;2022-09-16T18:20:24;11.80;99.90
39079;DHT22;24829;49.208;12.080;2022-09-16T18:22:49;11.70;99.90
39079;DHT22;24829;49.208;12.080;2022-09-16T18:25:15;11.70;99.90